sensor_id;sensor_type;location;lat;lon;timestamp;pressure;altitude;pressure_sealevel;temperature
48854;BMP280;34673;52.808;17.856;2023-04-25T00:00:16;99212.59;;;12.06
48854;BMP280;34673;52.808;17.856;2023-04-25T00:02:44;99216.06;;;12.05
48854;BMP280;34673;52.808;17.856;2023-04-25T00:05:11;99214.47;;;12.01
48854;BMP280;34673;52.808;17.856;2023-04-25T00:07:39;99210.25;;;11.98
48854;BMP280;34673;52.808;17.856;2023-04-25T00:10:06;99207.78;;;11.93
48854;BMP280;34673;52.808;17.856;2023-04-25T00:12:34;99207.78;;;11.93
48854;BMP280;34673;52.808;17.856;2023-04-25T00:15:01;99201.97;;;11.87
48854;BMP280;34673;52.808;17.856;2023-04-25T00:17:28;99206.19;;;11.89
48854;BMP280;34673;52.808;17.856;2023-04-25T00:19:56;99206.31;;;11.86
48854;BMP280;34673;52.808;17.856;2023-04-25T00:22:24;99209.75;;;11.85
48854;BMP280;34673;52.808;17.856;2023-04-25T00:24:52;99210.66;;;11.84
48854;BMP280;34673;52.808;17.856;2023-04-25T00:27:20;99213.50;;;11.75
48854;BMP280;34673;52.808;17.856;2023-04-25T00:29:47;99220.59;;;11.70
48854;BMP280;34673;52.808;17.856;2023-04-25T00:32:14;99212.13;;;11.65
48854;BMP280;34673;52.808;17.856;2023-04-25T00:34:41;99218.25;;;11.62
48854;BMP280;34673;52.808;17.856;2023-04-25T00:37:08;99215.88;;;11.54
48854;BMP280;34673;52.808;17.856;2023-04-25T00:39:35;99216.06;;;11.48
48854;BMP280;34673;52.808;17.856;2023-04-25T00:42:02;99216.06;;;11.48
48854;BMP280;34673;52.808;17.856;2023-04-25T00:44:31;99216.06;;;11.48
48854;BMP280;34673;52.808;17.856;2023-04-25T00:47:00;99216.22;;;11.42
48854;BMP280;34673;52.808;17.856;2023-04-25T00:49:28;99209.66;;;11.32
48854;BMP280;34673;52.808;17.856;2023-04-25T00:51:56;99220.06;;;11.29
48854;BMP280;34673;52.808;17.856;2023-04-25T00:54:23;99218.47;;;11.25
48854;BMP280;34673;52.808;17.856;2023-04-25T00:56:52;99221.19;;;11.20
48854;BMP280;34673;52.808;17.856;2023-04-25T00:59:20;99220.53;;;11.14
48854;BMP280;34673;52.808;17.856;2023-04-25T01:01:47;99229.16;;;11.13
48854;BMP280;34673;52.808;17.856;2023-04-25T01:04:15;99229.25;;;11.09
48854;BMP280;34673;52.808;17.856;2023-04-25T01:06:42;99232.03;;;11.03
48854;BMP280;34673;52.808;17.856;2023-04-25T01:09:09;99205.88;;;10.83
48854;BMP280;34673;52.808;17.856;2023-04-25T01:11:36;99231.50;;;10.92
48854;BMP280;34673;52.808;17.856;2023-04-25T01:14:04;99229.00;;;10.87
48854;BMP280;34673;52.808;17.856;2023-04-25T01:16:31;99233.53;;;10.81
48854;BMP280;34673;52.808;17.856;2023-04-25T01:19:00;99244.69;;;10.83
48854;BMP280;34673;52.808;17.856;2023-04-25T01:21:27;99244.75;;;10.80
48854;BMP280;34673;52.808;17.856;2023-04-25T01:23:56;99243.25;;;10.71
48854;BMP280;34673;52.808;17.856;2023-04-25T01:26:24;99242.41;;;10.71
48854;BMP280;34673;52.808;17.856;2023-04-25T01:28:52;99238.16;;;10.68
48854;BMP280;34673;52.808;17.856;2023-04-25T01:31:19;99251.22;;;10.63
48854;BMP280;34673;52.808;17.856;2023-04-25T01:33:47;99243.69;;;10.54
48854;BMP280;34673;52.808;17.856;2023-04-25T01:36:15;99239.47;;;10.50
48854;BMP280;34673;52.808;17.856;2023-04-25T01:38:42;99238.69;;;10.48
48854;BMP280;34673;52.808;17.856;2023-04-25T01:41:10;99242.97;;;10.49
48854;BMP280;34673;52.808;17.856;2023-04-25T01:43:38;99241.38;;;10.45
48854;BMP280;34673;52.808;17.856;2023-04-25T01:46:05;99240.56;;;10.41
48854;BMP280;34673;52.808;17.856;2023-04-25T01:48:33;99244.16;;;10.36
48854;BMP280;34673;52.808;17.856;2023-04-25T01:51:00;99244.25;;;10.31
48854;BMP280;34673;52.808;17.856;2023-04-25T01:53:28;99248.69;;;10.26
48854;BMP280;34673;52.808;17.856;2023-04-25T01:55:55;99253.88;;;10.25
48854;BMP280;34673;52.808;17.856;2023-04-25T01:58:25;99255.72;;;10.19
48854;BMP280;34673;52.808;17.856;2023-04-25T02:01:04;99257.66;;;10.11
48854;BMP280;34673;52.808;17.856;2023-04-25T02:03:39;99257.66;;;10.11
48854;BMP280;34673;52.808;17.856;2023-04-25T02:06:14;99257.72;;;10.08
48854;BMP280;34673;52.808;17.856;2023-04-25T02:08:43;99253.47;;;10.06
48854;BMP280;34673;52.808;17.856;2023-04-25T02:11:12;99252.63;;;10.05
48854;BMP280;34673;52.808;17.856;2023-04-25T02:13:45;99256.16;;;10.01
48854;BMP280;34673;52.808;17.856;2023-04-25T02:16:31;99261.31;;;10.01
48854;BMP280;34673;52.808;17.856;2023-04-25T02:19:00;99257.97;;;9.99
48854;BMP280;34673;52.808;17.856;2023-04-25T02:21:29;99258.13;;;9.91
48854;BMP280;34673;52.808;17.856;2023-04-25T02:23:57;99265.88;;;9.91
48854;BMP280;34673;52.808;17.856;2023-04-25T02:26:27;99259.91;;;9.88
48854;BMP280;34673;52.808;17.856;2023-04-25T02:28:56;99263.47;;;9.84
48854;BMP280;34673;52.808;17.856;2023-04-25T02:31:23;99260.94;;;9.81
48854;BMP280;34673;52.808;17.856;2023-04-25T02:33:51;99263.59;;;9.77
48854;BMP280;34673;52.808;17.856;2023-04-25T02:36:18;99267.19;;;9.70
48854;BMP280;34673;52.808;17.856;2023-04-25T02:38:47;99267.28;;;9.67
48854;BMP280;34673;52.808;17.856;2023-04-25T02:41:14;99267.28;;;9.67
48854;BMP280;34673;52.808;17.856;2023-04-25T02:43:42;99268.88;;;9.71
48854;BMP280;34673;52.808;17.856;2023-04-25T02:46:09;99274.84;;;9.75
48854;BMP280;34673;52.808;17.856;2023-04-25T02:48:36;99281.00;;;9.69
48854;BMP280;34673;52.808;17.856;2023-04-25T02:51:03;99271.53;;;9.68
48854;BMP280;34673;52.808;17.856;2023-04-25T02:53:31;99265.59;;;9.66
48854;BMP280;34673;52.808;17.856;2023-04-25T02:55:58;99270.78;;;9.63
48854;BMP280;34673;52.808;17.856;2023-04-25T02:58:26;99272.56;;;9.61
48854;BMP280;34673;52.808;17.856;2023-04-25T03:00:53;99276.16;;;9.54
48854;BMP280;34673;52.808;17.856;2023-04-25T03:03:21;99270.97;;;9.56
48854;BMP280;34673;52.808;17.856;2023-04-25T03:05:50;99275.38;;;9.50
48854;BMP280;34673;52.808;17.856;2023-04-25T03:08:22;99276.38;;;9.45
48854;BMP280;34673;52.808;17.856;2023-04-25T03:10:50;99262.78;;;9.37
48854;BMP280;34673;52.808;17.856;2023-04-25T03:13:18;99276.53;;;9.36
48854;BMP280;34673;52.808;17.856;2023-04-25T03:15:46;99273.13;;;9.33
48854;BMP280;34673;52.808;17.856;2023-04-25T03:18:13;99274.91;;;9.31
48854;BMP280;34673;52.808;17.856;2023-04-25T03:20:40;99280.13;;;9.28
48854;BMP280;34673;52.808;17.856;2023-04-25T03:23:08;99280.06;;;9.31
48854;BMP280;34673;52.808;17.856;2023-04-25T03:25:37;99281.97;;;9.23
48854;BMP280;34673;52.808;17.856;2023-04-25T03:28:05;99278.56;;;9.21
48854;BMP280;34673;52.808;17.856;2023-04-25T03:30:32;99276.75;;;9.25
48854;BMP280;34673;52.808;17.856;2023-04-25T03:33:00;99276.72;;;9.26
48854;BMP280;34673;52.808;17.856;2023-04-25T03:35:27;99280.25;;;9.22
48854;BMP280;34673;52.808;17.856;2023-04-25T03:37:54;99282.81;;;9.22
48854;BMP280;34673;52.808;17.856;2023-04-25T03:40:27;99280.25;;;9.22
48854;BMP280;34673;52.808;17.856;2023-04-25T03:43:26;99283.72;;;9.21
48854;BMP280;34673;52.808;17.856;2023-04-25T03:46:00;99290.50;;;9.25
48854;BMP280;34673;52.808;17.856;2023-04-25T03:48:27;99293.91;;;9.27
48854;BMP280;34673;52.808;17.856;2023-04-25T03:50:54;99287.06;;;9.26
48854;BMP280;34673;52.808;17.856;2023-04-25T03:53:22;99292.28;;;9.23
48854;BMP280;34673;52.808;17.856;2023-04-25T03:56:07;99292.34;;;9.20
48854;BMP280;34673;52.808;17.856;2023-04-25T03:58:36;99293.06;;;9.25
48854;BMP280;34673;52.808;17.856;2023-04-25T04:01:05;99295.72;;;9.22
48854;BMP280;34673;52.808;17.856;2023-04-25T04:03:37;99302.56;;;9.25
48854;BMP280;34673;52.808;17.856;2023-04-25T04:06:06;99297.38;;;9.26
48854;BMP280;34673;52.808;17.856;2023-04-25T04:08:40;99300.81;;;9.25
48854;BMP280;34673;52.808;17.856;2023-04-25T04:11:08;99300.72;;;9.31
48854;BMP280;34673;52.808;17.856;2023-04-25T04:13:36;99305.81;;;9.35
48854;BMP280;34673;52.808;17.856;2023-04-25T04:16:04;99302.22;;;9.42
48854;BMP280;34673;52.808;17.856;2023-04-25T04:18:31;99303.94;;;9.43
48854;BMP280;34673;52.808;17.856;2023-04-25T04:21:01;99302.28;;;9.39
48854;BMP280;34673;52.808;17.856;2023-04-25T04:23:30;99300.66;;;9.35
48854;BMP280;34673;52.808;17.856;2023-04-25T04:25:58;99304.00;;;9.38
48854;BMP280;34673;52.808;17.856;2023-04-25T04:28:29;99304.94;;;9.36
48854;BMP280;34673;52.808;17.856;2023-04-25T04:31:04;99309.38;;;9.27
48854;BMP280;34673;52.808;17.856;2023-04-25T04:33:32;99318.72;;;9.35
48854;BMP280;34673;52.808;17.856;2023-04-25T04:36:03;99311.03;;;9.31
48854;BMP280;34673;52.808;17.856;2023-04-25T04:38:31;99318.78;;;9.31
48854;BMP280;34673;52.808;17.856;2023-04-25T04:41:02;99324.75;;;9.33
48854;BMP280;34673;52.808;17.856;2023-04-25T04:43:53;99323.06;;;9.32
48854;BMP280;34673;52.808;17.856;2023-04-25T04:46:30;99328.28;;;9.29
48854;BMP280;34673;52.808;17.856;2023-04-25T04:49:36;99319.91;;;9.18
48854;BMP280;34673;52.808;17.856;2023-04-25T04:52:42;99323.34;;;9.17
48854;BMP280;34673;52.808;17.856;2023-04-25T04:55:41;99333.66;;;9.17
48854;BMP280;34673;52.808;17.856;2023-04-25T04:58:28;99343.13;;;9.18
48854;BMP280;34673;52.808;17.856;2023-04-25T05:01:12;99339.56;;;9.24
48854;BMP280;34673;52.808;17.856;2023-04-25T05:03:58;99343.75;;;9.29
48854;BMP280;34673;52.808;17.856;2023-04-25T05:06:52;99336.91;;;9.28
48854;BMP280;34673;52.808;17.856;2023-04-25T05:09:41;99337.63;;;9.35
48854;BMP280;34673;52.808;17.856;2023-04-25T05:12:26;99324.59;;;9.43
48854;BMP280;34673;52.808;17.856;2023-04-25T05:15:20;99339.72;;;9.61
48854;BMP280;34673;52.808;17.856;2023-04-25T05:18:18;99336.00;;;9.74
48854;BMP280;34673;52.808;17.856;2023-04-25T05:21:06;99332.38;;;9.82
48854;BMP280;34673;52.808;17.856;2023-04-25T05:23:56;99335.78;;;9.84
48854;BMP280;34673;52.808;17.856;2023-04-25T05:26:42;99329.03;;;9.76
48854;BMP280;34673;52.808;17.856;2023-04-25T05:29:31;99328.13;;;9.79
48854;BMP280;34673;52.808;17.856;2023-04-25T05:32:10;99333.44;;;9.73
48854;BMP280;34673;52.808;17.856;2023-04-25T05:34:38;99334.34;;;9.69
48854;BMP280;34673;52.808;17.856;2023-04-25T05:37:11;99329.44;;;9.58
48854;BMP280;34673;52.808;17.856;2023-04-25T05:39:50;99329.47;;;9.57
48854;BMP280;34673;52.808;17.856;2023-04-25T05:42:44;99332.88;;;9.57
48854;BMP280;34673;52.808;17.856;2023-04-25T05:45:30;99334.59;;;9.58
48854;BMP280;34673;52.808;17.856;2023-04-25T05:48:03;99324.28;;;9.58
48854;BMP280;34673;52.808;17.856;2023-04-25T05:50:56;99329.03;;;9.76
48854;BMP280;34673;52.808;17.856;2023-04-25T05:53:46;99333.88;;;9.92
48854;BMP280;34673;52.808;17.856;2023-04-25T05:56:14;99337.22;;;9.97
48854;BMP280;34673;52.808;17.856;2023-04-25T05:58:41;99336.25;;;10.01
48854;BMP280;34673;52.808;17.856;2023-04-25T06:01:11;99332.69;;;10.07
48854;BMP280;34673;52.808;17.856;2023-04-25T06:03:39;99328.84;;;10.23
48854;BMP280;34673;52.808;17.856;2023-04-25T06:06:11;99347.38;;;10.43
48854;BMP280;34673;52.808;17.856;2023-04-25T06:08:39;99337.53;;;10.59
48854;BMP280;34673;52.808;17.856;2023-04-25T06:11:06;99345.72;;;10.77
48854;BMP280;34673;52.808;17.856;2023-04-25T06:13:34;99339.25;;;10.93
48854;BMP280;34673;52.808;17.856;2023-04-25T06:16:01;99336.66;;;10.93
48854;BMP280;34673;52.808;17.856;2023-04-25T06:18:28;99338.13;;;11.03
48854;BMP280;34673;52.808;17.856;2023-04-25T06:20:56;99343.41;;;11.00
48854;BMP280;34673;52.808;17.856;2023-04-25T06:23:23;99341.72;;;10.99
48854;BMP280;34673;52.808;17.856;2023-04-25T06:25:56;99346.88;;;10.99
48854;BMP280;34673;52.808;17.856;2023-04-25T06:28:24;99341.53;;;11.05
48854;BMP280;34673;52.808;17.856;2023-04-25T06:30:51;99342.91;;;11.19
48854;BMP280;34673;52.808;17.856;2023-04-25T06:33:19;99344.19;;;11.35
48854;BMP280;34673;52.808;17.856;2023-04-25T06:35:48;99334.47;;;11.43
48854;BMP280;34673;52.808;17.856;2023-04-25T06:38:18;99333.09;;;11.61
48854;BMP280;34673;52.808;17.856;2023-04-25T06:40:49;99337.72;;;11.81
48854;BMP280;34673;52.808;17.856;2023-04-25T06:43:17;99333.97;;;11.91
48854;BMP280;34673;52.808;17.856;2023-04-25T06:46:04;99337.34;;;11.93
48854;BMP280;34673;52.808;17.856;2023-04-25T06:48:37;99330.69;;;11.86
48854;BMP280;34673;52.808;17.856;2023-04-25T06:51:04;99335.16;;;11.80
48854;BMP280;34673;52.808;17.856;2023-04-25T06:53:33;99328.44;;;11.72
48854;BMP280;34673;52.808;17.856;2023-04-25T06:56:03;99333.59;;;11.74
48854;BMP280;34673;52.808;17.856;2023-04-25T06:58:54;99330.25;;;11.70
48854;BMP280;34673;52.808;17.856;2023-04-25T07:01:32;99331.28;;;11.65
48854;BMP280;34673;52.808;17.856;2023-04-25T07:04:03;99331.44;;;11.59
48854;BMP280;34673;52.808;17.856;2023-04-25T07:06:32;99337.72;;;11.50
48854;BMP280;34673;52.808;17.856;2023-04-25T07:08:59;99344.28;;;11.32
48854;BMP280;34673;52.808;17.856;2023-04-25T07:11:27;99339.25;;;11.26
48854;BMP280;34673;52.808;17.856;2023-04-25T07:13:55;99343.41;;;11.31
48854;BMP280;34673;52.808;17.856;2023-04-25T07:16:22;99336.16;;;11.44
48854;BMP280;34673;52.808;17.856;2023-04-25T07:18:50;99337.53;;;11.56
48854;BMP280;34673;52.808;17.856;2023-04-25T07:21:18;99332.31;;;11.59
48854;BMP280;34673;52.808;17.856;2023-04-25T07:23:47;99321.94;;;11.59
48854;BMP280;34673;52.808;17.856;2023-04-25T07:26:18;99340.94;;;11.58
48854;BMP280;34673;52.808;17.856;2023-04-25T07:29:05;99339.00;;;11.66
48854;BMP280;34673;52.808;17.856;2023-04-25T07:31:33;99332.97;;;11.66
48854;BMP280;34673;52.808;17.856;2023-04-25T07:34:00;99339.91;;;11.64
48854;BMP280;34673;52.808;17.856;2023-04-25T07:36:28;99341.78;;;11.90
48854;BMP280;34673;52.808;17.856;2023-04-25T07:38:55;99338.69;;;12.07
48854;BMP280;34673;52.808;17.856;2023-04-25T07:41:22;99333.69;;;12.01
48854;BMP280;34673;52.808;17.856;2023-04-25T07:43:49;99339.84;;;11.96
48854;BMP280;34673;52.808;17.856;2023-04-25T07:46:19;99349.59;;;11.88
48854;BMP280;34673;52.808;17.856;2023-04-25T07:48:46;99344.84;;;11.73
48854;BMP280;34673;52.808;17.856;2023-04-25T07:51:14;99345.69;;;11.73
48854;BMP280;34673;52.808;17.856;2023-04-25T07:53:41;99346.72;;;11.68
48854;BMP280;34673;52.808;17.856;2023-04-25T07:56:11;99348.50;;;11.66
48854;BMP280;34673;52.808;17.856;2023-04-25T07:58:42;99349.44;;;11.63
48854;BMP280;34673;52.808;17.856;2023-04-25T08:01:12;99355.81;;;11.51
48854;BMP280;34673;52.808;17.856;2023-04-25T08:03:48;99355.03;;;11.48
48854;BMP280;34673;52.808;17.856;2023-04-25T08:06:23;99354.28;;;11.44
48854;BMP280;34673;52.808;17.856;2023-04-25T08:09:17;99365.34;;;11.51
48854;BMP280;34673;52.808;17.856;2023-04-25T08:11:44;99356.41;;;11.61
48854;BMP280;34673;52.808;17.856;2023-04-25T08:14:14;99360.56;;;11.67
48854;BMP280;34673;52.808;17.856;2023-04-25T08:16:43;99351.91;;;11.68
48854;BMP280;34673;52.808;17.856;2023-04-25T08:19:10;99360.31;;;11.76
48854;BMP280;34673;52.808;17.856;2023-04-25T08:21:37;99355.94;;;11.78
48854;BMP280;34673;52.808;17.856;2023-04-25T08:24:09;99352.16;;;11.90
48854;BMP280;34673;52.808;17.856;2023-04-25T08:26:38;99351.63;;;12.08
48854;BMP280;34673;52.808;17.856;2023-04-25T08:29:07;99352.16;;;12.18
48854;BMP280;34673;52.808;17.856;2023-04-25T08:31:38;99350.38;;;12.20
48854;BMP280;34673;52.808;17.856;2023-04-25T08:34:06;99361.41;;;12.27
48854;BMP280;34673;52.808;17.856;2023-04-25T08:36:38;99355.38;;;12.26
48854;BMP280;34673;52.808;17.856;2023-04-25T08:39:24;99350.59;;;12.14
48854;BMP280;34673;52.808;17.856;2023-04-25T08:42:15;99369.69;;;12.10
48854;BMP280;34673;52.808;17.856;2023-04-25T08:44:45;99362.84;;;12.09
48854;BMP280;34673;52.808;17.856;2023-04-25T08:47:13;99360.94;;;12.14
48854;BMP280;34673;52.808;17.856;2023-04-25T08:49:45;99360.94;;;12.14
48854;BMP280;34673;52.808;17.856;2023-04-25T08:52:22;99359.34;;;12.10
48854;BMP280;34673;52.808;17.856;2023-04-25T08:54:51;99367.06;;;12.11
48854;BMP280;34673;52.808;17.856;2023-04-25T08:57:20;99372.44;;;12.05
48854;BMP280;34673;52.808;17.856;2023-04-25T08:59:49;99368.88;;;12.08
48854;BMP280;34673;52.808;17.856;2023-04-25T09:02:17;99369.59;;;12.13
48854;BMP280;34673;52.808;17.856;2023-04-25T09:04:49;99367.59;;;12.23
48854;BMP280;34673;52.808;17.856;2023-04-25T09:07:16;99369.03;;;12.31
48854;BMP280;34673;52.808;17.856;2023-04-25T09:09:48;99371.88;;;12.52
48854;BMP280;34673;52.808;17.856;2023-04-25T09:12:20;99370.28;;;12.74
48854;BMP280;34673;52.808;17.856;2023-04-25T09:15:07;99377.56;;;12.90
48854;BMP280;34673;52.808;17.856;2023-04-25T09:17:57;99375.75;;;12.92
48854;BMP280;34673;52.808;17.856;2023-04-25T09:20:30;99378.31;;;12.93
48854;BMP280;34673;52.808;17.856;2023-04-25T09:23:05;99384.13;;;13.00
48854;BMP280;34673;52.808;17.856;2023-04-25T09:25:35;99386.91;;;13.20
48854;BMP280;34673;52.808;17.856;2023-04-25T09:28:08;99386.31;;;13.39
48854;BMP280;34673;52.808;17.856;2023-04-25T09:30:36;99392.47;;;13.36
48854;BMP280;34673;52.808;17.856;2023-04-25T09:33:10;99389.09;;;13.33
48854;BMP280;34673;52.808;17.856;2023-04-25T09:35:44;99390.19;;;13.25
48854;BMP280;34673;52.808;17.856;2023-04-25T09:38:20;99390.13;;;13.28
48854;BMP280;34673;52.808;17.856;2023-04-25T09:41:11;99395.31;;;13.28
48854;BMP280;34673;52.808;17.856;2023-04-25T09:43:45;99396.91;;;13.33
48854;BMP280;34673;52.808;17.856;2023-04-25T09:46:14;99393.19;;;13.40
48854;BMP280;34673;52.808;17.856;2023-04-25T09:48:49;99401.34;;;13.54
48854;BMP280;34673;52.808;17.856;2023-04-25T09:51:26;99398.81;;;13.52
48854;BMP280;34673;52.808;17.856;2023-04-25T09:53:57;99405.00;;;13.73
48854;BMP280;34673;52.808;17.856;2023-04-25T09:56:48;99404.38;;;13.90
48854;BMP280;34673;52.808;17.856;2023-04-25T09:59:15;99395.66;;;13.91
48854;BMP280;34673;52.808;17.856;2023-04-25T10:01:43;99401.31;;;13.79
48854;BMP280;34673;52.808;17.856;2023-04-25T10:04:24;99401.66;;;13.70
48854;BMP280;34673;52.808;17.856;2023-04-25T10:07:06;99410.25;;;13.72
48854;BMP280;34673;52.808;17.856;2023-04-25T10:09:37;99406.00;;;13.69
48854;BMP280;34673;52.808;17.856;2023-04-25T10:12:07;99413.91;;;13.66
48854;BMP280;34673;52.808;17.856;2023-04-25T10:14:35;99424.84;;;13.51
48854;BMP280;34673;52.808;17.856;2023-04-25T10:17:02;99411.44;;;13.38
48854;BMP280;34673;52.808;17.856;2023-04-25T10:19:30;99414.31;;;13.30
48854;BMP280;34673;52.808;17.856;2023-04-25T10:22:07;99423.09;;;13.26
48854;BMP280;34673;52.808;17.856;2023-04-25T10:24:36;99413.72;;;13.21
48854;BMP280;34673;52.808;17.856;2023-04-25T10:27:04;99417.34;;;13.17
48854;BMP280;34673;52.808;17.856;2023-04-25T10:29:32;99423.47;;;13.14
48854;BMP280;34673;52.808;17.856;2023-04-25T10:31:59;99419.16;;;13.13
48854;BMP280;34673;52.808;17.856;2023-04-25T10:34:41;99420.91;;;13.13
48854;BMP280;34673;52.808;17.856;2023-04-25T10:37:09;99425.66;;;13.00
48854;BMP280;34673;52.808;17.856;2023-04-25T10:39:39;99429.53;;;12.88
48854;BMP280;34673;52.808;17.856;2023-04-25T10:42:07;99429.75;;;12.80
48854;BMP280;34673;52.808;17.856;2023-04-25T10:44:37;99426.75;;;12.66
48854;BMP280;34673;52.808;17.856;2023-04-25T10:47:07;99423.47;;;12.61
48854;BMP280;34673;52.808;17.856;2023-04-25T10:49:42;99425.34;;;12.56
48854;BMP280;34673;52.808;17.856;2023-04-25T10:52:14;99430.44;;;12.59
48854;BMP280;34673;52.808;17.856;2023-04-25T10:54:46;99432.16;;;12.60
48854;BMP280;34673;52.808;17.856;2023-04-25T10:57:42;99435.34;;;12.68
48854;BMP280;34673;52.808;17.856;2023-04-25T11:00:12;99428.34;;;12.70
48854;BMP280;34673;52.808;17.856;2023-04-25T11:02:57;99426.66;;;12.69
48854;BMP280;34673;52.808;17.856;2023-04-25T11:05:39;99430.44;;;12.59
48854;BMP280;34673;52.808;17.856;2023-04-25T11:08:43;99432.31;;;12.54
48854;BMP280;34673;52.808;17.856;2023-04-25T11:11:16;99430.53;;;12.56
48854;BMP280;34673;52.808;17.856;2023-04-25T11:13:43;99421.09;;;12.53
48854;BMP280;34673;52.808;17.856;2023-04-25T11:16:10;99420.06;;;12.59
48854;BMP280;34673;52.808;17.856;2023-04-25T11:18:44;99424.88;;;12.71
48854;BMP280;34673;52.808;17.856;2023-04-25T11:21:11;99428.06;;;12.79
48854;BMP280;34673;52.808;17.856;2023-04-25T11:23:38;99427.06;;;12.83
48854;BMP280;34673;52.808;17.856;2023-04-25T11:26:06;99429.38;;;12.93
48854;BMP280;34673;52.808;17.856;2023-04-25T11:28:33;99433.66;;;12.94
48854;BMP280;34673;52.808;17.856;2023-04-25T11:31:02;99424.28;;;12.90
48854;BMP280;34673;52.808;17.856;2023-04-25T11:33:31;99433.06;;;12.85
48854;BMP280;34673;52.808;17.856;2023-04-25T11:35:58;99435.06;;;12.77
48854;BMP280;34673;52.808;17.856;2023-04-25T11:38:26;99435.34;;;12.68
48854;BMP280;34673;52.808;17.856;2023-04-25T11:40:55;99437.38;;;12.58
48854;BMP280;34673;52.808;17.856;2023-04-25T11:43:22;99440.81;;;12.59
48854;BMP280;34673;52.808;17.856;2023-04-25T11:45:50;99440.91;;;12.56
48854;BMP280;34673;52.808;17.856;2023-04-25T11:48:20;99440.88;;;12.57
48854;BMP280;34673;52.808;17.856;2023-04-25T11:50:53;99444.22;;;12.61
48854;BMP280;34673;52.808;17.856;2023-04-25T11:53:20;99435.63;;;12.59
48854;BMP280;34673;52.808;17.856;2023-04-25T11:55:48;99447.63;;;12.63
48854;BMP280;34673;52.808;17.856;2023-04-25T11:58:17;99439.13;;;12.58
48854;BMP280;34673;52.808;17.856;2023-04-25T12:00:46;99448.44;;;12.65
48854;BMP280;34673;52.808;17.856;2023-04-25T12:03:17;99442.13;;;12.72
48854;BMP280;34673;52.808;17.856;2023-04-25T12:05:45;99447.16;;;12.78
48854;BMP280;34673;52.808;17.856;2023-04-25T12:08:14;99443.34;;;12.89
48854;BMP280;34673;52.808;17.856;2023-04-25T12:10:43;99439.56;;;12.99
48854;BMP280;34673;52.808;17.856;2023-04-25T12:13:25;99442.84;;;13.04
48854;BMP280;34673;52.808;17.856;2023-04-25T12:15:55;99443.50;;;13.11
48854;BMP280;34673;52.808;17.856;2023-04-25T12:18:23;99439.91;;;13.15
48854;BMP280;34673;52.808;17.856;2023-04-25T12:20:52;99438.56;;;13.29
48854;BMP280;34673;52.808;17.856;2023-04-25T12:23:26;99448.75;;;13.36
48854;BMP280;34673;52.808;17.856;2023-04-25T12:25:55;99438.38;;;13.36
48854;BMP280;34673;52.808;17.856;2023-04-25T12:28:24;99438.16;;;13.42
48854;BMP280;34673;52.808;17.856;2023-04-25T12:31:04;99435.19;;;13.52
48854;BMP280;34673;52.808;17.856;2023-04-25T12:33:34;99439.31;;;13.58
48854;BMP280;34673;52.808;17.856;2023-04-25T12:36:02;99437.41;;;13.63
48854;BMP280;34673;52.808;17.856;2023-04-25T12:38:39;99432.09;;;13.66
48854;BMP280;34673;52.808;17.856;2023-04-25T12:41:07;99428.59;;;13.67
48854;BMP280;34673;52.808;17.856;2023-04-25T12:43:34;99438.00;;;13.71
48854;BMP280;34673;52.808;17.856;2023-04-25T12:46:01;99432.09;;;13.66
48854;BMP280;34673;52.808;17.856;2023-04-25T12:48:29;99434.34;;;13.52
48854;BMP280;34673;52.808;17.856;2023-04-25T12:50:56;99443.47;;;13.39
48854;BMP280;34673;52.808;17.856;2023-04-25T12:53:23;99437.81;;;13.26
48854;BMP280;34673;52.808;17.856;2023-04-25T12:55:51;99439.34;;;13.05
48854;BMP280;34673;52.808;17.856;2023-04-25T12:58:19;99446.75;;;12.91
48854;BMP280;34673;52.808;17.856;2023-04-25T13:00:46;99443.75;;;12.76
48854;BMP280;34673;52.808;17.856;2023-04-25T13:03:14;99451.81;;;12.67
48854;BMP280;34673;52.808;17.856;2023-04-25T13:05:42;99450.41;;;12.57
48854;BMP280;34673;52.808;17.856;2023-04-25T13:08:09;99442.69;;;12.54
48854;BMP280;34673;52.808;17.856;2023-04-25T13:10:36;99441.09;;;12.50
48854;BMP280;34673;52.808;17.856;2023-04-25T13:13:06;99437.59;;;12.51
48854;BMP280;34673;52.808;17.856;2023-04-25T13:15:33;99434.13;;;12.52
48854;BMP280;34673;52.808;17.856;2023-04-25T13:18:00;99437.25;;;12.63
48854;BMP280;34673;52.808;17.856;2023-04-25T13:20:28;99440.13;;;12.80
48854;BMP280;34673;52.808;17.856;2023-04-25T13:22:55;99432.84;;;12.92
48854;BMP280;34673;52.808;17.856;2023-04-25T13:25:22;99436.81;;;13.03
48854;BMP280;34673;52.808;17.856;2023-04-25T13:27:49;99436.25;;;13.20
48854;BMP280;34673;52.808;17.856;2023-04-25T13:30:16;99445.56;;;13.27
48854;BMP280;34673;52.808;17.856;2023-04-25T13:32:44;99437.78;;;13.27
48854;BMP280;34673;52.808;17.856;2023-04-25T13:35:13;99446.94;;;13.38
48854;BMP280;34673;52.808;17.856;2023-04-25T13:37:43;99452.91;;;13.41
48854;BMP280;34673;52.808;17.856;2023-04-25T13:40:10;99449.50;;;13.39
48854;BMP280;34673;52.808;17.856;2023-04-25T13:42:38;99454.03;;;13.33
48854;BMP280;34673;52.808;17.856;2023-04-25T13:45:06;99452.63;;;13.22
48854;BMP280;34673;52.808;17.856;2023-04-25T13:47:34;99448.66;;;13.12
48854;BMP280;34673;52.808;17.856;2023-04-25T13:50:01;99447.31;;;13.00
48854;BMP280;34673;52.808;17.856;2023-04-25T13:52:30;99449.94;;;12.99
48854;BMP280;34673;52.808;17.856;2023-04-25T13:54:58;99447.31;;;13.00
48854;BMP280;34673;52.808;17.856;2023-04-25T13:57:25;99458.44;;;13.04
48854;BMP280;34673;52.808;17.856;2023-04-25T13:59:52;99451.34;;;13.09
48854;BMP280;34673;52.808;17.856;2023-04-25T14:02:20;99453.13;;;13.07
48854;BMP280;34673;52.808;17.856;2023-04-25T14:04:47;99452.28;;;13.06
48854;BMP280;34673;52.808;17.856;2023-04-25T14:07:15;99448.03;;;13.04
48854;BMP280;34673;52.808;17.856;2023-04-25T14:09:46;99445.25;;;13.10
48854;BMP280;34673;52.808;17.856;2023-04-25T14:12:13;99452.31;;;13.05
48854;BMP280;34673;52.808;17.856;2023-04-25T14:14:40;99460.13;;;13.05
48854;BMP280;34673;52.808;17.856;2023-04-25T14:17:08;99458.63;;;12.98
48854;BMP280;34673;52.808;17.856;2023-04-25T14:19:35;99458.81;;;12.92
48854;BMP280;34673;52.808;17.856;2023-04-25T14:22:04;99452.78;;;12.91